KMIA/MIA METAR and TAF weather

Enter ICAO airport designator
Station Type Date Time Source
KMIA METAR 2019/06/16 20:53 UTC NOAA

KMIA 162053Z 11003KT 10SM -RA FEW012 SCT045 OVC100 24/22 A3004 RMK AO2 SLP173 P0002 60026 T02440217 56016


Station Type Date Time Source
KMIA Decoded METAR 2019/06/16 20:53 UTC NOAA

MIAMI INTERNATIONAL AIRPORT , FL, United States (KMIA) 25-47N 080-19W 8M
Jun 16, 2019 - 04:53 PM EDT / 2019.06.16 2053 UTC
Wind: from the ESE (110 degrees) at 3 MPH (3 KT):0
Visibility: 10 mile(s):0
Sky conditions: overcast
Weather: light rain
Precipitation last hour: 0.02 inches
Temperature: 75.9 F (24.4 C)
Dew Point: 71.1 F (21.7 C)
Relative Humidity: 84%
Pressure (altimeter): 30.04 in. Hg (1017 hPa)
Pressure tendency: 0.05 inches (1.6 hPa) lower than three hours ago
ob: KMIA 162053Z 11003KT 10SM -RA FEW012 SCT045 OVC100 24/22 A3004 RMK AO2 SLP173 P0002 60026 T02440217 56016
cycle: 21

Station Type Date Time Source
KMIA TAF 2019/06/16 20:58 UTC NOAA

TAF
AMD KMIA 161956Z 1620/1724 VRB04KT P6SM SHRA FEW020 BKN080 OVC100
FM170200 VRB05KT P6SM VCSH SCT020 BKN070 BKN200
FM171000 13008KT P6SM VCSH SCT020 BKN040 BKN080 PROB30 1710/1716 TSRA BKN035CB
FM172000 15010KT P6SM VCSH SCT030 BKN050 OVC090

Example: see airport list